Time;durP1;ratioP1;P1;durP2;ratioP2;P2;SDS_P1;SDS_P2;PMS_P1;PMS_P2;Temp;Humidity;BMP_temperature;BMP_pressure;BME280_temperature;BME280_humidity;BME280_pressure;Samples;Min_cycle;Max_cycle;Signal;HPM_P1;HPM_P2
2023/02/27 00:01:56;;;;;;;;;;;;;;;-0.43;56.15;92355.47;2058528;69;20145;-79
2023/02/27 00:04:22;;;;;;;;;;;;;;;-0.28;55.45;92356.25;2058639;69;20042;-75
2023/02/27 00:06:47;;;;;;;;;;;;;;;-0.47;55.17;92355.81;2058441;69;20483;-80
2023/02/27 00:09:13;;;;;;;;;;;;;;;-0.44;55.47;92365.06;2058719;69;20142;-80
2023/02/27 00:11:39;;;;;;;;;;;;;;;-0.45;55.66;92363.59;2058239;69;20062;-78
2023/02/27 00:14:04;;;;;;;;;;;;;;;-0.26;55.42;92359.22;2058319;69;20061;-78
2023/02/27 00:16:29;;;;;;;;;;;;;;;-0.17;55.72;92363.47;2058280;69;20405;-81
2023/02/27 00:18:58;;;;;;;;;;;;;;;-0.23;56.06;92365.66;2057989;69;20108;-77
2023/02/27 00:21:23;;;;;;;;;;;;;;;-0.21;56.16;92367.91;2058260;69;20163;-81
2023/02/27 00:23:50;;;;;;;;;;;;;;;-0.16;56.20;92361.47;2058589;69;20145;-79
2023/02/27 00:26:15;;;;;;;;;;;;;;;-0.32;56.58;92371.72;2057676;69;20061;-78
2023/02/27 00:28:41;;;;;;;;;;;;;;;-0.33;57.02;92373.75;2058383;69;20050;-80
2023/02/27 00:31:06;;;;;;;;;;;;;;;-0.23;56.84;92373.22;2056863;69;20505;-80
2023/02/27 00:33:32;;;;;;;;;;;;;;;-0.20;56.33;92381.19;2058373;69;20057;-75
2023/02/27 00:35:59;;;;;;;;;;;;;;;-0.27;56.53;92379.13;2057878;69;20054;-78
2023/02/27 00:38:26;;;;;;;;;;;;;;;-0.23;56.27;92373.22;2058374;69;20097;-75
2023/02/27 00:40:52;;;;;;;;;;;;;;;-0.33;57.10;92373.00;2058215;69;20053;-75
2023/02/27 00:43:17;;;;;;;;;;;;;;;-0.31;56.75;92370.47;2058180;69;20061;-78
2023/02/27 00:45:43;;;;;;;;;;;;;;;-0.41;57.06;92378.53;2058124;69;20152;-77
2023/02/27 00:48:08;;;;;;;;;;;;;;;-0.33;57.88;92387.59;2057561;69;20053;-79
2023/02/27 00:50:33;;;;;;;;;;;;;;;-0.25;57.59;92390.38;2058437;69;20053;-79
2023/02/27 00:52:59;;;;;;;;;;;;;;;-0.38;58.01;92385.00;2058064;69;20562;-78
2023/02/27 00:55:25;;;;;;;;;;;;;;;-0.40;57.47;92382.78;2059635;69;20156;-77
2023/02/27 00:57:50;;;;;;;;;;;;;;;-0.33;56.98;92381.31;2061316;69;20656;-75
2023/02/27 01:00:16;;;;;;;;;;;;;;;-0.27;56.94;92381.91;2061680;69;20596;-76
2023/02/27 01:02:41;;;;;;;;;;;;;;;-0.22;56.75;92380.25;2057443;69;20179;-78
2023/02/27 01:05:07;;;;;;;;;;;;;;;-0.27;56.98;92385.41;2058480;69;20054;-79
2023/02/27 01:07:33;;;;;;;;;;;;;;;-0.31;57.23;92378.75;2057692;69;20056;-72
2023/02/27 01:10:00;;;;;;;;;;;;;;;-0.27;57.32;92379.13;2058414;69;20113;-77
2023/02/27 01:12:26;;;;;;;;;;;;;;;-0.37;57.24;92375.41;2057816;69;20069;-79
2023/02/27 01:14:51;;;;;;;;;;;;;;;-0.28;57.34;92372.09;2057930;69;20056;-79
2023/02/27 01:17:20;;;;;;;;;;;;;;;-0.42;57.39;92376.31;2058269;69;20070;-79
2023/02/27 01:19:45;;;;;;;;;;;;;;;-0.34;57.74;92377.81;2058210;69;20050;-80
2023/02/27 01:22:11;;;;;;;;;;;;;;;-0.33;57.61;92378.53;2058505;69;20490;-78
2023/02/27 01:24:36;;;;;;;;;;;;;;;-0.34;57.31;92380.56;2058443;69;20509;-72
2023/02/27 01:27:04;;;;;;;;;;;;;;;-0.33;57.15;92384.81;2058158;69;20046;-80
2023/02/27 01:29:35;;;;;;;;;;;;;;;-0.28;57.34;92386.69;2057857;69;20178;-79
2023/02/27 01:32:01;;;;;;;;;;;;;;;-0.29;56.93;92382.44;2053572;69;20198;-78
2023/02/27 01:34:27;;;;;;;;;;;;;;;-0.43;56.82;92386.63;2054289;70;20073;-79
2023/02/27 01:36:52;;;;;;;;;;;;;;;-0.40;56.96;92388.31;2054461;69;20057;-78
2023/02/27 01:39:17;;;;;;;;;;;;;;;-0.30;56.59;92388.53;2055794;69;20132;-79
2023/02/27 01:41:44;;;;;;;;;;;;;;;-0.20;56.53;92389.47;2058194;69;20426;-79
2023/02/27 01:44:11;;;;;;;;;;;;;;;-0.25;56.77;92384.84;2057330;69;20049;-80
2023/02/27 01:46:37;;;;;;;;;;;;;;;-0.18;56.66;92389.69;2057357;69;20509;-78
2023/02/27 01:49:03;;;;;;;;;;;;;;;-0.16;56.72;92389.13;2057984;69;20078;-77
2023/02/27 01:51:31;;;;;;;;;;;;;;;-0.22;56.74;92383.03;2057273;69;20086;-76
2023/02/27 01:53:57;;;;;;;;;;;;;;;-0.26;57.24;92388.91;2057923;69;20082;-75
2023/02/27 01:56:24;;;;;;;;;;;;;;;-0.28;57.38;92386.69;2058135;69;20568;-77
2023/02/27 01:58:52;;;;;;;;;;;;;;;-0.29;56.76;92387.97;2057554;69;20065;-75
2023/02/27 02:01:19;;;;;;;;;;;;;;;-0.37;57.71;92389.22;2058218;69;20093;-78
2023/02/27 02:03:44;;;;;;;;;;;;;;;-0.35;57.79;92394.97;2057685;69;20050;-78
2023/02/27 02:06:10;;;;;;;;;;;;;;;-0.38;57.77;92396.06;2058196;69;20144;-78
2023/02/27 02:08:38;;;;;;;;;;;;;;;-0.33;57.73;92397.91;2057538;69;20070;-73
2023/02/27 02:11:05;;;;;;;;;;;;;;;-0.34;57.35;92390.91;2057527;69;20058;-78
2023/02/27 02:13:30;;;;;;;;;;;;;;;-0.44;57.38;92393.44;2057879;69;20056;-78
2023/02/27 02:16:22;;;;;;;;;;;;;;;-0.32;57.85;92396.63;2058232;69;20164;-77
2023/02/27 02:18:51;;;;;;;;;;;;;;;-0.41;57.24;92397.13;2051473;69;20065;-77
2023/02/27 02:21:17;;;;;;;;;;;;;;;-0.45;57.33;92399.53;2057597;69;20141;-79
2023/02/27 02:24:01;;;;;;;;;;;;;;;-0.34;56.97;92391.63;2054766;69;20101;-79
2023/02/27 02:26:45;;;;;;;;;;;;;;;-0.36;57.03;92404.56;2058159;69;20521;-80
2023/02/27 02:29:17;;;;;;;;;;;;;;;-0.29;56.66;92406.59;2058528;69;20062;-79
2023/02/27 02:31:46;;;;;;;;;;;;;;;-0.29;56.50;92403.84;2058770;69;20077;-80
2023/02/27 02:34:30;;;;;;;;;;;;;;;-0.50;56.95;92406.72;2058565;69;20046;-77
2023/02/27 02:36:56;;;;;;;;;;;;;;;-0.84;58.29;92401.38;2058047;69;20176;-81
2023/02/27 02:39:35;;;;;;;;;;;;;;;-0.84;58.01;92404.88;2057841;69;20057;-79
2023/02/27 02:42:03;;;;;;;;;;;;;;;-0.51;57.07;92403.19;2058447;69;20062;-75
2023/02/27 02:44:44;;;;;;;;;;;;;;;-0.48;57.65;92409.66;2057388;69;20054;-80
2023/02/27 02:47:18;;;;;;;;;;;;;;;-0.53;58.28;92410.56;2058285;69;20085;-76
2023/02/27 02:49:52;;;;;;;;;;;;;;;-0.41;57.98;92414.50;2057610;69;20062;-78
2023/02/27 02:52:26;;;;;;;;;;;;;;;-0.42;57.90;92413.00;2058088;69;20160;-75
2023/02/27 02:54:56;;;;;;;;;;;;;;;-0.47;57.91;92405.59;2058126;69;20133;-77
2023/02/27 02:57:36;;;;;;;;;;;;;;;-0.37;57.90;92403.06;2058358;69;20089;-79
2023/02/27 03:00:02;;;;;;;;;;;;;;;-0.24;57.39;92416.75;2062027;69;20167;-76
2023/02/27 03:02:30;;;;;;;;;;;;;;;-0.40;57.83;92418.00;2061630;69;20057;-79
2023/02/27 03:05:05;;;;;;;;;;;;;;;-0.91;58.24;92410.38;2061534;69;20081;-81
2023/02/27 03:07:45;;;;;;;;;;;;;;;-1.08;59.60;92408.03;2061487;69;20481;-77
2023/02/27 03:10:13;;;;;;;;;;;;;;;-0.79;58.78;92414.28;2061462;69;20053;-79
2023/02/27 03:12:42;;;;;;;;;;;;;;;-0.62;58.23;92406.28;2061498;69;20057;-79
2023/02/27 03:15:15;;;;;;;;;;;;;;;-0.52;57.95;92412.03;2062044;69;20150;-78
2023/02/27 03:17:59;;;;;;;;;;;;;;;-0.48;58.27;92415.19;2058194;69;20054;-78
2023/02/27 03:20:33;;;;;;;;;;;;;;;-0.50;58.50;92423.31;2061850;69;20082;-79
2023/02/27 03:23:03;;;;;;;;;;;;;;;-0.40;58.66;92423.53;2061268;69;20414;-77
2023/02/27 03:25:31;;;;;;;;;;;;;;;-0.49;58.51;92421.28;2061346;69;20056;-79
2023/02/27 03:28:02;;;;;;;;;;;;;;;-0.41;58.01;92422.03;2061254;69;20081;-80
2023/02/27 03:30:31;;;;;;;;;;;;;;;-0.29;57.75;92421.16;2061084;69;20062;-73
2023/02/27 03:33:03;;;;;;;;;;;;;;;-0.26;57.08;92427.63;2061293;69;20470;-80
2023/02/27 03:35:39;;;;;;;;;;;;;;;-0.42;58.40;92418.53;2061929;69;20058;-82
2023/02/27 03:38:14;;;;;;;;;;;;;;;-0.43;58.36;92424.63;2061139;69;20474;-79
2023/02/27 03:40:47;;;;;;;;;;;;;;;-0.36;57.87;92430.19;2058643;69;20053;-77
2023/02/27 03:43:37;;;;;;;;;;;;;;;-0.38;58.33;92429.25;2061425;69;20078;-80
2023/02/27 03:46:06;;;;;;;;;;;;;;;-0.40;57.77;92429.78;2054359;69;20050;-81
2023/02/27 03:48:32;;;;;;;;;;;;;;;-0.31;57.23;92436.84;2051437;70;20058;-81
2023/02/27 03:50:58;;;;;;;;;;;;;;;-0.34;57.67;92446.97;2054409;69;20196;-78
2023/02/27 03:53:24;;;;;;;;;;;;;;;-0.38;57.74;92441.03;2054442;69;20050;-81
2023/02/27 03:55:50;;;;;;;;;;;;;;;-0.33;57.79;92453.97;2051535;70;20449;-79
2023/02/27 03:58:16;;;;;;;;;;;;;;;-0.35;57.70;92448.25;2054989;69;20050;-81
2023/02/27 04:00:42;;;;;;;;;;;;;;;-0.30;57.96;92463.22;2054604;69;20251;-80
2023/02/27 04:03:08;;;;;;;;;;;;;;;-0.46;57.96;92456.84;2050936;70;20058;-81
2023/02/27 04:05:34;;;;;;;;;;;;;;;-0.40;57.94;92456.72;2050475;70;20059;-81
2023/02/27 04:08:05;;;;;;;;;;;;;;;-0.30;57.81;92463.22;2051142;70;20557;-77
2023/02/27 04:10:39;;;;;;;;;;;;;;;-0.29;57.29;92467.44;2051125;70;20051;-75
2023/02/27 04:13:23;;;;;;;;;;;;;;;-0.29;57.39;92461.91;2051230;70;20101;-80
2023/02/27 04:15:49;;;;;;;;;;;;;;;-0.34;57.78;92465.59;2051015;70;20521;-79
2023/02/27 04:18:33;;;;;;;;;;;;;;;-0.31;57.49;92472.81;2051011;70;20539;-75
2023/02/27 04:21:05;;;;;;;;;;;;;;;-0.41;57.41;92469.81;2051038;70;20075;-79
2023/02/27 04:23:38;;;;;;;;;;;;;;;-0.33;56.36;92478.88;2056018;69;20553;-71
2023/02/27 04:26:23;;;;;;;;;;;;;;;-0.31;56.39;92478.34;2058507;69;20462;-71
2023/02/27 04:29:02;;;;;;;;;;;;;;;-0.35;57.05;92475.91;2057871;69;20403;-81
2023/02/27 04:31:35;;;;;;;;;;;;;;;-0.49;57.59;92476.59;2058262;69;20629;-70
2023/02/27 04:34:22;;;;;;;;;;;;;;;-0.43;56.77;92480.66;2058298;69;20077;-77
2023/02/27 04:36:54;;;;;;;;;;;;;;;-0.34;56.46;92482.94;2058310;69;20230;-79
2023/02/27 04:39:30;;;;;;;;;;;;;;;-0.70;56.23;92488.44;2057778;69;20054;-81
2023/02/27 04:42:11;;;;;;;;;;;;;;;-0.73;56.06;92486.75;2058078;69;20101;-77
2023/02/27 04:44:38;;;;;;;;;;;;;;;-0.54;56.39;92489.28;2058425;69;20737;-72
2023/02/27 04:47:08;;;;;;;;;;;;;;;-0.42;55.81;92486.94;2058441;69;20162;-79
2023/02/27 04:49:36;;;;;;;;;;;;;;;-0.40;56.15;92489.91;2058340;69;20054;-81
2023/02/27 04:52:02;;;;;;;;;;;;;;;-0.48;56.03;92484.31;2058594;69;20494;-73
2023/02/27 04:54:44;;;;;;;;;;;;;;;-0.46;55.74;92486.53;2058326;69;20117;-78
2023/02/27 04:57:15;;;;;;;;;;;;;;;-0.47;55.92;92480.28;2058358;69;20077;-80
2023/02/27 04:59:47;;;;;;;;;;;;;;;-0.51;55.86;92493.69;2058521;69;20137;-79
2023/02/27 05:02:15;;;;;;;;;;;;;;;-0.45;56.08;92491.53;2058420;69;20066;-76
2023/02/27 05:04:42;;;;;;;;;;;;;;;-0.42;56.72;92490.44;2058449;69;20485;-78
2023/02/27 05:07:10;;;;;;;;;;;;;;;-0.45;56.68;92488.78;2058529;69;20470;-82
2023/02/27 05:09:38;;;;;;;;;;;;;;;-0.49;57.06;92493.91;2058442;69;20055;-79
2023/02/27 05:12:04;;;;;;;;;;;;;;;-0.67;56.71;92481.09;2058437;69;20113;-81
2023/02/27 05:14:35;;;;;;;;;;;;;;;-0.59;56.93;92496.44;2058442;69;20058;-80
2023/02/27 05:17:08;;;;;;;;;;;;;;;-0.59;56.55;92501.22;2058143;69;20569;-82
2023/02/27 05:19:36;;;;;;;;;;;;;;;-0.45;56.28;92493.56;2058534;69;20053;-79
2023/02/27 05:22:10;;;;;;;;;;;;;;;-0.48;56.63;92500.19;2057768;69;20167;-80
2023/02/27 05:24:42;;;;;;;;;;;;;;;-0.61;57.73;92501.03;2058495;69;20505;-81
2023/02/27 05:27:26;;;;;;;;;;;;;;;-0.41;57.77;92499.47;2058345;69;20050;-81
2023/02/27 05:29:53;;;;;;;;;;;;;;;-0.51;57.62;92496.47;2058255;69;20050;-81
2023/02/27 05:32:19;;;;;;;;;;;;;;;-0.44;57.59;92492.28;2058165;69;20050;-79
2023/02/27 05:35:05;;;;;;;;;;;;;;;-0.55;57.17;92496.84;2058505;69;20054;-81
2023/02/27 05:37:54;;;;;;;;;;;;;;;-0.46;56.81;92505.91;2058407;69;20057;-80
2023/02/27 05:40:24;;;;;;;;;;;;;;;-0.36;56.51;92502.09;2047472;70;20051;-80
2023/02/27 05:43:01;;;;;;;;;;;;;;;-0.48;56.45;92502.94;2047318;70;20150;-79
2023/02/27 05:45:29;;;;;;;;;;;;;;;-0.80;57.29;92504.03;2047374;70;20703;-80
2023/02/27 05:47:57;;;;;;;;;;;;;;;-0.91;57.29;92507.81;2046879;70;20099;-80
2023/02/27 05:50:28;;;;;;;;;;;;;;;-0.60;56.84;92503.22;2046671;70;20457;-81
2023/02/27 05:52:55;;;;;;;;;;;;;;;-0.56;56.17;92511.19;2047122;70;20149;-80
2023/02/27 05:55:24;;;;;;;;;;;;;;;-0.61;56.05;92514.84;2047061;70;20063;-79
2023/02/27 05:57:56;;;;;;;;;;;;;;;-0.48;55.79;92517.50;2045917;70;20446;-79
2023/02/27 06:00:27;;;;;;;;;;;;;;;-0.45;56.30;92524.72;2047246;70;20085;-79
2023/02/27 06:02:53;;;;;;;;;;;;;;;-0.37;56.28;92522.00;2046995;70;20850;-78
2023/02/27 06:05:18;;;;;;;;;;;;;;;-0.39;56.63;92528.06;2044571;70;20051;-80
2023/02/27 06:07:47;;;;;;;;;;;;;;;-0.43;56.70;92530.44;2047342;70;20225;-80
2023/02/27 06:10:14;;;;;;;;;;;;;;;-0.31;56.68;92526.09;2047054;70;20098;-79
2023/02/27 06:12:39;;;;;;;;;;;;;;;-0.35;56.17;92527.75;2047280;70;20047;-78
2023/02/27 06:15:05;;;;;;;;;;;;;;;-0.75;56.80;92532.81;2047229;70;20054;-82
2023/02/27 06:17:31;;;;;;;;;;;;;;;-0.44;56.65;92534.50;2051905;70;20059;-80
2023/02/27 06:19:56;;;;;;;;;;;;;;;-1.15;57.99;92536.53;2055136;69;20070;-79
2023/02/27 06:22:21;;;;;;;;;;;;;;;-0.92;57.45;92533.97;2055347;69;20172;-80
2023/02/27 06:24:47;;;;;;;;;;;;;;;-0.85;57.08;92538.81;2055183;69;20103;-80
2023/02/27 06:27:12;;;;;;;;;;;;;;;-0.60;56.80;92538.44;2055022;69;20069;-80
2023/02/27 06:29:38;;;;;;;;;;;;;;;-0.96;57.34;92533.59;2055122;69;20046;-79
2023/02/27 06:32:03;;;;;;;;;;;;;;;-1.38;59.01;92546.63;2054470;70;20102;-80
2023/02/27 06:34:28;;;;;;;;;;;;;;;-1.30;58.65;92539.91;2055387;70;20039;-79
2023/02/27 06:36:54;;;;;;;;;;;;;;;-1.18;58.64;92536.88;2056480;70;20383;-79
2023/02/27 06:39:19;;;;;;;;;;;;;;;-1.08;58.68;92543.41;2054832;70;20050;-80
2023/02/27 06:41:45;;;;;;;;;;;;;;;-0.52;57.49;92542.00;2055029;69;20153;-80
2023/02/27 06:44:10;;;;;;;;;;;;;;;-0.78;58.33;92553.97;2055135;69;20132;-81
2023/02/27 06:46:36;;;;;;;;;;;;;;;-0.53;57.33;92557.84;2061621;69;20046;-81
2023/02/27 06:49:01;;;;;;;;;;;;;;;-0.88;57.93;92550.22;2061421;69;20050;-80
2023/02/27 06:51:27;;;;;;;;;;;;;;;-1.06;58.80;92560.94;2061778;69;20112;-77
2023/02/27 06:53:52;;;;;;;;;;;;;;;-0.64;58.18;92549.09;2061595;69;20053;-81
2023/02/27 06:56:17;;;;;;;;;;;;;;;-0.27;57.01;92559.69;2061864;69;20089;-78
2023/02/27 06:58:43;;;;;;;;;;;;;;;-0.38;56.71;92559.25;2061596;69;20057;-80
2023/02/27 07:01:08;;;;;;;;;;;;;;;-0.66;57.62;92566.25;2062231;69;20058;-79
2023/02/27 07:03:34;;;;;;;;;;;;;;;-0.96;57.96;92571.50;2061996;69;20049;-79
2023/02/27 07:06:01;;;;;;;;;;;;;;;-0.68;57.76;92568.06;2062168;69;20100;-80
2023/02/27 07:08:26;;;;;;;;;;;;;;;-0.59;57.35;92573.13;2061597;69;20084;-79
2023/02/27 07:10:52;;;;;;;;;;;;;;;-0.34;56.94;92567.94;2062079;69;20053;-80
2023/02/27 07:13:18;;;;;;;;;;;;;;;-0.37;57.17;92571.78;2061961;69;20077;-77
2023/02/27 07:15:43;;;;;;;;;;;;;;;-0.45;57.26;92573.78;2062237;69;20518;-80
2023/02/27 07:18:09;;;;;;;;;;;;;;;-0.29;57.54;92573.31;2062070;69;20049;-78
2023/02/27 07:20:34;;;;;;;;;;;;;;;-0.78;57.99;92571.31;2062200;69;20052;-78
2023/02/27 07:23:00;;;;;;;;;;;;;;;-0.18;57.13;92577.06;2062111;69;20048;-78
2023/02/27 07:25:25;;;;;;;;;;;;;;;-0.51;57.11;92577.41;2062207;69;20140;-80
2023/02/27 07:27:51;;;;;;;;;;;;;;;-0.48;57.35;92572.81;2061942;69;20081;-79
2023/02/27 07:30:17;;;;;;;;;;;;;;;-0.83;58.80;92574.94;2062060;69;20084;-78
2023/02/27 07:32:42;;;;;;;;;;;;;;;-0.96;59.04;92583.31;2056261;69;20060;-77
2023/02/27 07:35:08;;;;;;;;;;;;;;;-0.71;58.70;92582.97;2056518;69;20050;-78
2023/02/27 07:37:34;;;;;;;;;;;;;;;-0.33;57.61;92588.78;2057207;69;20409;-78
2023/02/27 07:39:59;;;;;;;;;;;;;;;-0.38;58.36;92582.09;2056864;69;20050;-76
2023/02/27 07:42:25;;;;;;;;;;;;;;;-0.69;58.34;92591.44;2056824;69;20052;-81
2023/02/27 07:44:50;;;;;;;;;;;;;;;-0.07;58.28;92585.06;2056917;69;20049;-83
2023/02/27 07:47:16;;;;;;;;;;;;;;;0.47;57.08;92581.28;2055358;69;20083;-75
2023/02/27 07:49:42;;;;;;;;;;;;;;;0.07;56.41;92594.75;2055363;69;20054;-77
2023/02/27 07:52:07;;;;;;;;;;;;;;;0.46;57.21;92590.88;2055384;69;20066;-76
2023/02/27 07:54:33;;;;;;;;;;;;;;;0.59;55.55;92587.22;2055520;69;20140;-77
2023/02/27 07:56:58;;;;;;;;;;;;;;;0.20;55.55;92594.63;2056597;69;20054;-75
2023/02/27 07:59:24;;;;;;;;;;;;;;;0.77;55.63;92588.94;2056744;69;20058;-76
2023/02/27 08:01:49;;;;;;;;;;;;;;;0.88;55.16;92587.13;2056946;69;20498;-76
2023/02/27 08:04:15;;;;;;;;;;;;;;;1.03;54.71;92587.16;2057685;69;20474;-77
2023/02/27 08:06:40;;;;;;;;;;;;;;;1.33;54.62;92594.78;2058656;69;20056;-73
2023/02/27 08:09:06;;;;;;;;;;;;;;;0.91;55.48;92594.31;2056814;69;20441;-74
2023/02/27 08:11:31;;;;;;;;;;;;;;;1.04;54.18;92585.13;2056803;69;20055;-75
2023/02/27 08:13:57;;;;;;;;;;;;;;;1.34;53.96;92593.47;2056842;69;20085;-77
2023/02/27 08:16:22;;;;;;;;;;;;;;;1.36;53.22;92604.00;2056520;69;20551;-74
2023/02/27 08:18:48;;;;;;;;;;;;;;;1.27;52.92;92606.03;2056178;69;20054;-75
2023/02/27 08:21:14;;;;;;;;;;;;;;;0.49;53.83;92602.88;2055476;70;20106;-76
2023/02/27 08:23:39;;;;;;;;;;;;;;;0.65;54.31;92598.88;2055489;69;20047;-78
2023/02/27 08:26:05;;;;;;;;;;;;;;;0.74;54.07;92600.41;2055334;70;20050;-77
2023/02/27 08:28:30;;;;;;;;;;;;;;;1.39;52.79;92595.31;2055525;69;20057;-78
2023/02/27 08:30:56;;;;;;;;;;;;;;;1.55;52.31;92598.84;2055212;70;20046;-78
2023/02/27 08:33:22;;;;;;;;;;;;;;;1.96;52.70;92599.72;2054558;70;20080;-78
2023/02/27 08:35:47;;;;;;;;;;;;;;;2.15;51.61;92599.31;2055248;69;20081;-78
2023/02/27 08:38:12;;;;;;;;;;;;;;;2.55;51.90;92599.41;2055318;70;20093;-75
2023/02/27 08:40:38;;;;;;;;;;;;;;;2.12;50.85;92594.91;2055279;70;20086;-77
2023/02/27 08:43:03;;;;;;;;;;;;;;;1.97;51.89;92593.66;2055449;70;20139;-80
2023/02/27 08:45:29;;;;;;;;;;;;;;;2.70;50.63;92598.59;2055386;69;20152;-76
2023/02/27 08:47:54;;;;;;;;;;;;;;;1.01;51.72;92596.03;2055567;69;20050;-78
2023/02/27 08:50:20;;;;;;;;;;;;;;;1.40;51.58;92607.16;2054876;69;20054;-82
2023/02/27 08:52:45;;;;;;;;;;;;;;;1.94;51.36;92605.84;2055277;69;20244;-81
2023/02/27 08:55:11;;;;;;;;;;;;;;;2.24;49.87;92602.25;2055407;70;20056;-78
2023/02/27 08:57:36;;;;;;;;;;;;;;;2.54;49.79;92612.56;2055407;70;20053;-78
2023/02/27 09:00:05;;;;;;;;;;;;;;;2.34;49.73;92610.03;2055284;69;20046;-83
2023/02/27 09:02:31;;;;;;;;;;;;;;;2.90;48.17;92607.97;2055115;69;20053;-79
2023/02/27 09:04:56;;;;;;;;;;;;;;;3.06;48.64;92609.38;2055531;70;20122;-80
2023/02/27 09:07:21;;;;;;;;;;;;;;;2.63;48.26;92611.25;2055822;70;20660;-78
2023/02/27 09:09:47;;;;;;;;;;;;;;;3.04;47.42;92614.78;2055537;69;20073;-79
2023/02/27 09:12:12;;;;;;;;;;;;;;;3.38;46.89;92619.00;2055191;69;20660;-79
2023/02/27 09:14:38;;;;;;;;;;;;;;;3.32;46.32;92616.47;2055270;70;20050;-80
2023/02/27 09:17:04;;;;;;;;;;;;;;;3.43;44.72;92618.78;2055709;69;20483;-76
2023/02/27 09:19:30;;;;;;;;;;;;;;;2.62;46.69;92617.38;2055358;69;20152;-79
2023/02/27 09:21:55;;;;;;;;;;;;;;;2.91;46.23;92620.56;2055274;69;20392;-77
2023/02/27 09:24:21;;;;;;;;;;;;;;;2.84;45.84;92619.31;2054840;70;20092;-80
2023/02/27 09:26:47;;;;;;;;;;;;;;;2.27;45.37;92615.03;2055191;70;20146;-77
2023/02/27 09:29:12;;;;;;;;;;;;;;;2.62;45.97;92622.94;2055343;69;20051;-77
2023/02/27 09:31:37;;;;;;;;;;;;;;;3.38;44.46;92628.09;2056423;69;20046;-78
2023/02/27 09:34:03;;;;;;;;;;;;;;;2.73;45.77;92617.69;2061685;69;20141;-79
2023/02/27 09:36:29;;;;;;;;;;;;;;;3.79;42.59;92620.41;2061483;69;20045;-77
2023/02/27 09:38:54;;;;;;;;;;;;;;;4.21;43.49;92628.75;2055919;69;20565;-79
2023/02/27 09:41:27;;;;;;;;;;;;;;;4.54;42.24;92623.81;2058466;69;20141;-76
2023/02/27 09:43:53;;;;;;;;;;;;;;;4.62;41.91;92622.97;2058466;69;20136;-79
2023/02/27 09:46:20;;;;;;;;;;;;;;;4.15;42.24;92628.25;2058528;69;20497;-80
2023/02/27 09:48:48;;;;;;;;;;;;;;;4.16;41.22;92621.38;2058236;69;20045;-76
2023/02/27 09:51:15;;;;;;;;;;;;;;;4.47;42.26;92627.41;2058832;69;20061;-78
2023/02/27 09:53:42;;;;;;;;;;;;;;;4.78;42.05;92627.81;2058667;69;20054;-73
2023/02/27 09:56:10;;;;;;;;;;;;;;;4.29;42.85;92632.22;2058429;69;20445;-79
2023/02/27 09:58:53;;;;;;;;;;;;;;;5.20;42.18;92637.34;2058698;69;20386;-77
2023/02/27 10:01:39;;;;;;;;;;;;;;;5.05;41.49;92633.44;2058695;69;20061;-73
2023/02/27 10:04:10;;;;;;;;;;;;;;;4.73;41.35;92625.28;2059204;69;20128;-72
2023/02/27 10:06:47;;;;;;;;;;;;;;;5.04;40.18;92637.56;2062442;69;20065;-79
2023/02/27 10:09:28;;;;;;;;;;;;;;;5.00;41.68;92645.59;2063800;69;20638;-78
2023/02/27 10:12:05;;;;;;;;;;;;;;;5.15;41.39;92650.25;2063063;69;20054;-76
2023/02/27 10:14:40;;;;;;;;;;;;;;;4.41;40.66;92642.91;2061243;69;20065;-73
2023/02/27 10:17:12;;;;;;;;;;;;;;;3.61;42.80;92644.66;2058421;69;20458;-74
2023/02/27 10:19:38;;;;;;;;;;;;;;;4.59;42.59;92653.50;2058658;69;20160;-71
2023/02/27 10:22:07;;;;;;;;;;;;;;;5.20;40.62;92649.25;2059220;69;20482;-81
2023/02/27 10:24:32;;;;;;;;;;;;;;;4.00;40.25;92648.63;2058852;69;20143;-82
2023/02/27 10:27:01;;;;;;;;;;;;;;;4.12;41.55;92648.91;2057901;69;20150;-76
2023/02/27 10:29:35;;;;;;;;;;;;;;;4.27;41.09;92648.78;2058511;69;20112;-79
2023/02/27 10:32:13;;;;;;;;;;;;;;;4.24;40.31;92660.31;2058311;69;20054;-80
2023/02/27 10:34:40;;;;;;;;;;;;;;;4.16;40.77;92646.44;2058541;69;20053;-78
2023/02/27 10:37:06;;;;;;;;;;;;;;;4.89;40.99;92650.94;2058948;69;20050;-80
2023/02/27 10:39:41;;;;;;;;;;;;;;;4.83;39.47;92653.97;2058949;69;20092;-80
2023/02/27 10:42:11;;;;;;;;;;;;;;;4.91;40.00;92654.63;2058835;69;20165;-79
2023/02/27 10:44:37;;;;;;;;;;;;;;;5.11;39.62;92649.94;2058787;69;20061;-77
2023/02/27 10:47:02;;;;;;;;;;;;;;;5.06;39.05;92648.13;2058842;69;20502;-83
2023/02/27 10:49:29;;;;;;;;;;;;;;;5.13;40.17;92652.88;2058844;69;20086;-76
2023/02/27 10:52:24;;;;;;;;;;;;;;;5.20;39.96;92651.31;2059280;69;20117;-76
2023/02/27 10:54:49;;;;;;;;;;;;;;;4.36;40.18;92652.97;2057422;69;20403;-82
2023/02/27 10:57:17;;;;;;;;;;;;;;;3.42;41.81;92639.59;2058832;69;20478;-74
2023/02/27 10:59:48;;;;;;;;;;;;;;;4.30;40.35;92644.09;2058913;69;20482;-77
2023/02/27 11:02:14;;;;;;;;;;;;;;;3.96;40.81;92645.50;2058693;69;20121;-75
2023/02/27 11:04:45;;;;;;;;;;;;;;;3.85;41.58;92646.00;2058836;69;20085;-74
2023/02/27 11:07:13;;;;;;;;;;;;;;;4.19;40.23;92650.16;2058777;69;20201;-76
2023/02/27 11:09:39;;;;;;;;;;;;;;;4.06;40.67;92645.63;2058798;69;20046;-74
2023/02/27 11:12:23;;;;;;;;;;;;;;;4.29;39.50;92648.94;2058682;69;20056;-77
2023/02/27 11:14:53;;;;;;;;;;;;;;;4.94;40.32;92649.94;2059148;69;20101;-77
2023/02/27 11:17:25;;;;;;;;;;;;;;;4.97;39.88;92648.81;2058556;69;20069;-76
2023/02/27 11:19:50;;;;;;;;;;;;;;;4.99;39.52;92644.09;2058711;69;20131;-78
2023/02/27 11:22:18;;;;;;;;;;;;;;;4.74;38.87;92638.63;2058775;69;20112;-78
2023/02/27 11:24:44;;;;;;;;;;;;;;;5.09;38.54;92642.16;2058802;69;20538;-77
2023/02/27 11:27:20;;;;;;;;;;;;;;;5.28;38.75;92640.78;2058148;69;20049;-79
2023/02/27 11:29:54;;;;;;;;;;;;;;;4.81;38.60;92637.81;2058710;69;20085;-76
2023/02/27 11:32:20;;;;;;;;;;;;;;;4.82;38.57;92636.50;2058487;69;20042;-78
2023/02/27 11:34:48;;;;;;;;;;;;;;;4.84;37.92;92636.66;2058729;69;20493;-82
2023/02/27 11:37:27;;;;;;;;;;;;;;;5.47;38.02;92640.16;2058687;69;20146;-81
2023/02/27 11:40:08;;;;;;;;;;;;;;;5.07;38.04;92638.44;2058645;69;20058;-81
2023/02/27 11:42:35;;;;;;;;;;;;;;;4.25;39.12;92629.09;2058029;69;20052;-79
2023/02/27 11:45:03;;;;;;;;;;;;;;;5.26;39.04;92630.19;2058746;69;20070;-78
2023/02/27 11:47:30;;;;;;;;;;;;;;;5.37;38.57;92619.84;2058418;69;20145;-77
2023/02/27 11:50:16;;;;;;;;;;;;;;;5.22;38.50;92621.53;2058650;69;20128;-77
2023/02/27 11:53:02;;;;;;;;;;;;;;;4.85;38.14;92617.88;2057220;69;20138;-78
2023/02/27 11:55:28;;;;;;;;;;;;;;;5.42;38.58;92613.25;2058906;69;20073;-78
2023/02/27 11:57:59;;;;;;;;;;;;;;;4.91;38.75;92621.16;2058736;69;20052;-78
2023/02/27 12:00:45;;;;;;;;;;;;;;;4.93;37.28;92617.78;2058741;69;20053;-75
2023/02/27 12:03:34;;;;;;;;;;;;;;;4.40;37.98;92613.53;2058615;69;20050;-76
2023/02/27 12:06:03;;;;;;;;;;;;;;;5.21;38.33;92624.88;2057641;69;20054;-78
2023/02/27 12:08:29;;;;;;;;;;;;;;;4.76;37.96;92610.91;2058764;69;20050;-79
2023/02/27 12:10:57;;;;;;;;;;;;;;;5.09;37.48;92617.03;2058659;69;20406;-76
2023/02/27 12:13:23;;;;;;;;;;;;;;;4.72;38.57;92610.59;2058620;69;20115;-75
2023/02/27 12:15:51;;;;;;;;;;;;;;;4.40;38.58;92614.28;2058808;69;20062;-73
2023/02/27 12:18:20;;;;;;;;;;;;;;;4.52;39.01;92606.91;2058477;69;20042;-78
2023/02/27 12:21:06;;;;;;;;;;;;;;;4.81;37.54;92607.16;2058841;69;20056;-78
2023/02/27 12:23:36;;;;;;;;;;;;;;;4.11;37.90;92611.22;2058709;69;20050;-80
2023/02/27 12:26:07;;;;;;;;;;;;;;;4.31;39.20;92606.59;2058694;69;20050;-80
2023/02/27 12:28:43;;;;;;;;;;;;;;;3.95;38.83;92610.63;2058796;69;20528;-82
2023/02/27 12:31:09;;;;;;;;;;;;;;;4.37;38.69;92612.63;2058736;69;20146;-82
2023/02/27 12:33:40;;;;;;;;;;;;;;;3.72;39.13;92613.59;2058454;69;20066;-83
2023/02/27 12:36:08;;;;;;;;;;;;;;;4.05;38.96;92616.28;2058726;69;20049;-81
2023/02/27 12:38:34;;;;;;;;;;;;;;;4.15;39.24;92605.25;2058686;69;20145;-82
2023/02/27 12:41:14;;;;;;;;;;;;;;;4.44;38.77;92611.81;2058734;69;20505;-80
2023/02/27 12:43:49;;;;;;;;;;;;;;;4.34;39.28;92608.94;2058148;69;20097;-81
2023/02/27 12:46:41;;;;;;;;;;;;;;;4.39;39.70;92614.84;2058609;69;20109;-79
2023/02/27 12:49:14;;;;;;;;;;;;;;;4.48;39.35;92608.63;2058426;69;20058;-82
2023/02/27 12:51:58;;;;;;;;;;;;;;;4.69;39.17;92611.00;2058854;69;20144;-86
2023/02/27 12:54:36;;;;;;;;;;;;;;;4.62;39.63;92615.34;2058168;69;20513;-78
2023/02/27 12:57:12;;;;;;;;;;;;;;;4.28;40.66;92611.25;2058639;69;20058;-79
2023/02/27 12:59:53;;;;;;;;;;;;;;;4.11;40.62;92610.47;2058667;69;20070;-79
2023/02/27 13:02:18;;;;;;;;;;;;;;;3.23;42.61;92611.50;2058463;69;20074;-77